createdAt,value
2023-03-22T00:00:15.506Z,95.36
2023-03-22T00:03:04.815Z,95.56
2023-03-22T00:05:33.192Z,95.32
2023-03-22T00:08:00.810Z,95.47
2023-03-22T00:10:29.208Z,96.19
2023-03-22T00:12:57.299Z,96.50
2023-03-22T00:15:24.572Z,96.42
2023-03-22T00:17:52.278Z,96.63
2023-03-22T00:20:20.827Z,97.32
2023-03-22T00:22:48.452Z,97.93
2023-03-22T00:25:16.482Z,97.81
2023-03-22T00:27:44.469Z,98.03
2023-03-22T00:30:12.474Z,98.85
2023-03-22T00:32:40.340Z,98.36
2023-03-22T00:35:09.405Z,98.71
2023-03-22T00:37:41.164Z,99.08
2023-03-22T00:40:13.284Z,100.00
2023-03-22T00:42:42.001Z,99.53
2023-03-22T00:45:12.540Z,99.48
2023-03-22T00:47:39.733Z,99.83
2023-03-22T00:50:08.270Z,99.90
2023-03-22T00:52:35.535Z,100.00
2023-03-22T00:55:03.239Z,100.00
2023-03-22T00:57:30.497Z,100.00
2023-03-22T00:59:58.430Z,100.00
2023-03-22T01:02:29.809Z,100.00
2023-03-22T01:04:57.937Z,100.00
2023-03-22T01:07:25.267Z,100.00
2023-03-22T01:09:53.640Z,100.00
2023-03-22T01:12:21.207Z,100.00
2023-03-22T01:14:48.810Z,100.00
2023-03-22T01:17:16.090Z,100.00
2023-03-22T01:19:43.581Z,100.00
2023-03-22T01:22:10.848Z,100.00
2023-03-22T01:24:38.388Z,100.00
2023-03-22T01:27:05.981Z,99.70
2023-03-22T01:29:33.585Z,99.92
2023-03-22T01:32:01.182Z,99.92
2023-03-22T01:34:28.722Z,99.66
2023-03-22T01:36:55.941Z,99.45
2023-03-22T01:39:23.557Z,99.45
2023-03-22T01:41:50.787Z,99.39
2023-03-22T01:44:21.925Z,99.43
2023-03-22T01:46:51.389Z,99.20
2023-03-22T01:49:40.069Z,99.02
2023-03-22T01:52:14.383Z,99.20
2023-03-22T01:54:52.664Z,99.06
2023-03-22T01:57:20.446Z,98.79
2023-03-22T01:59:50.198Z,98.82
2023-03-22T02:02:22.247Z,98.92
2023-03-22T02:04:57.963Z,99.67
2023-03-22T02:07:28.326Z,99.34
2023-03-22T02:09:56.603Z,99.29
2023-03-22T02:12:58.008Z,99.06
2023-03-22T02:15:53.818Z,99.55
2023-03-22T02:19:09.018Z,99.46
2023-03-22T02:22:15.488Z,99.19
2023-03-22T02:25:12.833Z,98.99
2023-03-22T02:28:17.368Z,99.33
2023-03-22T02:31:26.541Z,99.41
2023-03-22T02:34:23.853Z,99.08
2023-03-22T02:37:18.089Z,99.98
2023-03-22T02:39:54.212Z,99.75
2023-03-22T02:42:49.153Z,99.51
2023-03-22T02:45:35.110Z,99.63
2023-03-22T02:48:14.733Z,99.93
2023-03-22T02:51:10.097Z,100.00
2023-03-22T02:54:08.454Z,100.00
2023-03-22T02:56:46.943Z,100.00
2023-03-22T02:59:17.903Z,100.00
2023-03-22T03:01:56.411Z,100.00
2023-03-22T03:04:33.910Z,100.00
2023-03-22T03:07:09.411Z,100.00
2023-03-22T03:09:41.359Z,100.00
2023-03-22T03:12:21.697Z,100.00
2023-03-22T03:14:49.211Z,100.00
2023-03-22T03:17:56.413Z,100.00
2023-03-22T03:21:04.858Z,100.00
2023-03-22T03:24:31.811Z,100.00
2023-03-22T03:27:12.438Z,100.00
2023-03-22T03:30:00.681Z,100.00
2023-03-22T03:32:43.418Z,100.00
2023-03-22T03:35:22.377Z,100.00
2023-03-22T03:38:11.994Z,100.00
2023-03-22T03:41:01.135Z,100.00
2023-03-22T03:43:28.446Z,100.00
2023-03-22T03:45:56.490Z,100.00
2023-03-22T03:48:29.282Z,100.00
2023-03-22T03:50:59.457Z,100.00
2023-03-22T03:53:26.963Z,100.00
2023-03-22T03:55:54.753Z,100.00
2023-03-22T03:58:22.309Z,100.00
2023-03-22T04:00:51.015Z,100.00
2023-03-22T04:03:18.318Z,100.00
2023-03-22T04:05:46.421Z,100.00
2023-03-22T04:08:14.103Z,99.55
2023-03-22T04:10:41.849Z,99.45
2023-03-22T04:13:09.198Z,98.93
2023-03-22T04:15:37.065Z,98.82
2023-03-22T04:18:04.820Z,98.71
2023-03-22T04:20:32.417Z,98.79
2023-03-22T04:23:00.342Z,98.33
2023-03-22T04:25:30.404Z,97.64
2023-03-22T04:28:00.669Z,97.77
2023-03-22T04:30:28.394Z,97.46
2023-03-22T04:32:56.458Z,97.54
2023-03-22T04:35:24.165Z,97.31
2023-03-22T04:37:51.756Z,96.97
2023-03-22T04:40:21.156Z,96.90
2023-03-22T04:42:48.588Z,96.67
2023-03-22T04:45:16.276Z,96.76
2023-03-22T04:47:43.596Z,96.66
2023-03-22T04:50:11.387Z,96.53
2023-03-22T04:52:38.709Z,96.44
2023-03-22T04:55:07.138Z,96.01
2023-03-22T04:57:35.838Z,95.98
2023-03-22T05:00:08.439Z,95.79
2023-03-22T05:02:41.146Z,95.57
2023-03-22T05:05:09.562Z,95.48
2023-03-22T05:07:36.929Z,94.68
2023-03-22T05:10:05.698Z,94.99
2023-03-22T05:12:33.017Z,94.93
2023-03-22T05:15:03.741Z,94.67
2023-03-22T05:17:31.822Z,94.30
2023-03-22T05:19:59.621Z,93.68
2023-03-22T05:22:26.975Z,93.37
2023-03-22T05:24:54.592Z,93.03
2023-03-22T05:27:31.301Z,93.10
2023-03-22T05:29:59.062Z,93.01
2023-03-22T05:32:29.379Z,92.63
2023-03-22T05:34:57.167Z,92.45
2023-03-22T05:37:24.588Z,91.38
2023-03-22T05:39:52.241Z,91.36
2023-03-22T05:42:19.499Z,91.10
2023-03-22T05:44:47.169Z,90.94
2023-03-22T05:47:14.503Z,90.24
2023-03-22T05:49:42.185Z,89.72
2023-03-22T05:52:09.827Z,89.63
2023-03-22T05:54:37.451Z,89.60
2023-03-22T05:57:04.793Z,89.54
2023-03-22T05:59:32.477Z,89.77
2023-03-22T06:01:59.736Z,89.46
2023-03-22T06:04:27.286Z,89.08
2023-03-22T06:06:54.641Z,88.90
2023-03-22T06:09:22.335Z,88.53
2023-03-22T06:11:49.710Z,87.90
2023-03-22T06:14:17.373Z,87.76
2023-03-22T06:16:44.708Z,86.57
2023-03-22T06:19:12.284Z,85.99
2023-03-22T06:21:39.594Z,85.64
2023-03-22T06:24:07.355Z,85.68
2023-03-22T06:26:34.631Z,86.05
2023-03-22T06:29:03.713Z,86.17
2023-03-22T06:31:31.002Z,86.42
2023-03-22T06:33:58.574Z,86.36
2023-03-22T06:36:26.008Z,85.40
2023-03-22T06:38:54.158Z,85.43
2023-03-22T06:41:21.631Z,84.98
2023-03-22T06:43:49.271Z,84.60
2023-03-22T06:46:16.802Z,83.19
2023-03-22T06:48:44.404Z,81.72
2023-03-22T06:51:11.729Z,80.88
2023-03-22T06:53:39.338Z,81.49
2023-03-22T06:56:07.240Z,80.25
2023-03-22T06:58:34.841Z,80.04
2023-03-22T07:01:02.082Z,80.30
2023-03-22T07:03:29.697Z,80.53
2023-03-22T07:06:08.704Z,80.11
2023-03-22T07:08:37.268Z,80.33
2023-03-22T07:11:06.437Z,80.46
2023-03-22T07:13:34.385Z,79.82
2023-03-22T07:16:02.887Z,79.29
2023-03-22T07:18:30.918Z,78.48
2023-03-22T07:20:58.367Z,78.40
2023-03-22T07:23:26.561Z,77.86
2023-03-22T07:25:56.017Z,77.41
2023-03-22T07:28:23.971Z,77.27
2023-03-22T07:31:10.020Z,78.03
2023-03-22T07:33:41.370Z,78.36
2023-03-22T07:36:10.400Z,78.31
2023-03-22T07:38:38.323Z,77.27
2023-03-22T07:41:06.340Z,75.83
2023-03-22T07:43:44.072Z,73.92
2023-03-22T07:46:18.215Z,72.28
2023-03-22T07:48:46.249Z,71.10
2023-03-22T07:51:13.567Z,69.53
2023-03-22T07:53:41.373Z,65.15
2023-03-22T07:56:09.237Z,62.08
2023-03-22T07:58:36.892Z,59.24
2023-03-22T08:01:09.068Z,58.31
2023-03-22T08:03:37.788Z,58.18
2023-03-22T08:06:07.759Z,58.53
2023-03-22T08:08:37.434Z,58.86
2023-03-22T08:11:08.433Z,58.62
2023-03-22T08:13:36.342Z,59.04
2023-03-22T08:16:03.930Z,58.09
2023-03-22T08:18:31.730Z,56.96
2023-03-22T08:21:00.357Z,55.21
2023-03-22T08:23:40.901Z,56.19
2023-03-22T08:26:11.222Z,56.10
2023-03-22T08:28:38.997Z,55.08
2023-03-22T08:31:16.162Z,53.77
2023-03-22T08:33:44.604Z,54.00
2023-03-22T08:36:16.797Z,55.15
2023-03-22T08:38:45.472Z,55.87
2023-03-22T08:41:13.645Z,57.17
2023-03-22T08:43:41.296Z,59.32
2023-03-22T08:46:09.583Z,58.91
2023-03-22T08:48:38.021Z,59.20
2023-03-22T08:51:06.833Z,60.77
2023-03-22T08:53:37.075Z,62.50
2023-03-22T08:56:05.125Z,62.51
2023-03-22T08:58:32.697Z,62.49
2023-03-22T09:01:00.021Z,63.07
2023-03-22T09:03:27.878Z,64.22
2023-03-22T09:05:55.403Z,64.02
2023-03-22T09:08:23.028Z,64.14
2023-03-22T09:10:52.148Z,64.11
2023-03-22T09:13:21.712Z,63.34
2023-03-22T09:15:51.328Z,62.74
2023-03-22T09:18:19.629Z,61.23
2023-03-22T09:20:46.935Z,59.68
2023-03-22T09:23:15.582Z,58.15
2023-03-22T09:25:49.595Z,56.22
2023-03-22T09:28:17.545Z,54.65
2023-03-22T09:30:45.023Z,53.69
2023-03-22T09:33:12.688Z,52.42
2023-03-22T09:35:43.910Z,49.85
2023-03-22T09:38:12.437Z,49.88
2023-03-22T09:41:05.558Z,48.61
2023-03-22T09:43:42.140Z,48.47
2023-03-22T09:46:21.705Z,47.33
2023-03-22T09:48:51.628Z,45.45
2023-03-22T09:51:37.420Z,45.15
2023-03-22T09:54:14.228Z,43.81
2023-03-22T09:56:42.946Z,43.81
2023-03-22T09:59:40.079Z,43.18
2023-03-22T10:02:45.500Z,40.40
2023-03-22T10:05:50.847Z,37.98
2023-03-22T10:08:42.337Z,32.39
2023-03-22T10:12:05.557Z,33.00
2023-03-22T10:14:45.206Z,33.60
2023-03-22T10:17:19.039Z,35.32
2023-03-22T10:20:05.610Z,35.79
2023-03-22T10:22:42.050Z,35.90
2023-03-22T10:25:17.522Z,34.55
2023-03-22T10:27:50.549Z,30.43
2023-03-22T10:30:30.268Z,29.46
2023-03-22T10:33:03.385Z,30.30
2023-03-22T10:35:32.510Z,30.75
2023-03-22T10:38:05.613Z,31.88
2023-03-22T10:40:36.492Z,33.40
2023-03-22T10:43:28.201Z,36.61
2023-03-22T10:45:58.287Z,39.15
2023-03-22T10:48:39.303Z,38.70
2023-03-22T10:51:08.007Z,33.17
2023-03-22T10:53:51.781Z,35.92
2023-03-22T10:56:21.042Z,37.28
2023-03-22T10:58:57.301Z,39.50
2023-03-22T11:01:41.711Z,40.40
2023-03-22T11:04:16.851Z,40.07
2023-03-22T11:06:56.099Z,40.75
2023-03-22T11:09:26.024Z,39.30
2023-03-22T11:12:01.152Z,38.28
2023-03-22T11:14:37.111Z,36.72
2023-03-22T11:17:08.023Z,32.55
2023-03-22T11:19:51.521Z,25.40
2023-03-22T11:22:46.199Z,24.45
2023-03-22T11:25:28.005Z,24.89
2023-03-22T11:28:04.252Z,24.96
2023-03-22T11:30:34.289Z,18.89
2023-03-22T11:33:21.552Z,15.66
2023-03-22T11:36:01.056Z,13.50
2023-03-22T11:38:41.230Z,12.74
2023-03-22T11:41:35.864Z,11.80
2023-03-22T11:44:13.190Z,11.89
2023-03-22T11:46:58.098Z,11.23
2023-03-22T11:49:52.212Z,10.35
2023-03-22T11:52:26.082Z,10.19
2023-03-22T11:54:55.934Z,9.58
2023-03-22T11:57:31.663Z,9.82
2023-03-22T12:00:20.585Z,9.51
2023-03-22T12:03:13.879Z,9.33
2023-03-22T12:05:46.393Z,10.44
2023-03-22T12:08:47.520Z,9.58
2023-03-22T12:11:36.304Z,9.50
2023-03-22T12:14:27.314Z,9.35
2023-03-22T12:17:07.939Z,9.54
2023-03-22T12:19:58.232Z,9.50
2023-03-22T12:22:40.123Z,9.55
2023-03-22T12:25:19.343Z,9.64
2023-03-22T12:27:55.736Z,9.93
2023-03-22T12:30:31.840Z,10.64
2023-03-22T12:33:11.569Z,10.42
2023-03-22T12:35:45.766Z,12.77
2023-03-22T12:38:49.981Z,12.45
2023-03-22T12:41:40.960Z,11.96
2023-03-22T12:44:19.129Z,13.14
2023-03-22T12:46:56.851Z,13.59
2023-03-22T12:49:44.102Z,13.60
2023-03-22T12:52:25.235Z,13.33
2023-03-22T12:54:56.225Z,13.20
2023-03-22T12:57:23.816Z,12.10
2023-03-22T12:59:56.010Z,11.18
2023-03-22T13:02:35.114Z,10.68
2023-03-22T13:05:06.863Z,10.37
2023-03-22T13:07:48.653Z,10.29
2023-03-22T13:10:48.162Z,9.89
2023-03-22T13:13:21.877Z,9.72
2023-03-22T13:16:09.709Z,9.30
2023-03-22T13:18:57.504Z,9.39
2023-03-22T13:21:31.937Z,9.25
2023-03-22T13:24:10.350Z,13.13
2023-03-22T13:26:46.199Z,16.22
2023-03-22T13:29:38.272Z,17.02
2023-03-22T13:32:31.119Z,13.67
2023-03-22T13:34:59.797Z,12.58
2023-03-22T13:37:35.028Z,11.79
2023-03-22T13:40:36.486Z,11.64
2023-03-22T13:43:48.158Z,12.84
2023-03-22T13:46:20.032Z,14.83
2023-03-22T13:48:48.030Z,13.35
2023-03-22T13:51:25.749Z,13.17
2023-03-22T13:54:14.128Z,14.48
2023-03-22T13:56:44.648Z,13.74
2023-03-22T13:59:13.248Z,12.71
2023-03-22T14:01:58.959Z,12.53
2023-03-22T14:04:52.171Z,12.23
2023-03-22T14:07:31.698Z,12.35
2023-03-22T14:10:20.020Z,12.44
2023-03-22T14:13:27.736Z,12.41
2023-03-22T14:16:04.039Z,12.62
2023-03-22T14:18:36.517Z,12.59
2023-03-22T14:21:34.833Z,12.74
